Time;durP1;ratioP1;P1;durP2;ratioP2;P2;SDS_P1;SDS_P2;PMS_P1;PMS_P2;Temp;Humidity;BMP_temperature;BMP_pressure;BME280_temperature;BME280_humidity;BME280_pressure;Samples;Min_cycle;Max_cycle;Signal;HPM_P1;HPM_P2
2021/09/18 00:01:02;;;;;;;10.43;6.30;;;13.80;99.90;;;;;;5031643;28;20514;-87
2021/09/18 00:03:31;;;;;;;11.95;5.75;;;13.80;99.90;;;;;;5029971;28;20379;-87
2021/09/18 00:05:57;;;;;;;7.97;6.43;;;13.80;99.90;;;;;;5033482;28;20056;-87
2021/09/18 00:08:23;;;;;;;9.20;6.43;;;13.70;99.90;;;;;;5035211;28;20033;-87
2021/09/18 00:10:48;;;;;;;11.30;5.95;;;13.80;99.90;;;;;;5034957;28;20026;-87
2021/09/18 00:13:14;;;;;;;6.95;5.25;;;13.70;99.90;;;;;;5035035;28;20026;-87
2021/09/18 00:15:40;;;;;;;9.70;5.80;;;13.80;99.90;;;;;;5034309;28;20034;-87
2021/09/18 00:18:05;;;;;;;6.88;6.03;;;13.80;99.90;;;;;;5034852;28;20028;-88
2021/09/18 00:20:31;;;;;;;8.88;6.00;;;13.80;99.90;;;;;;5034818;28;20034;-87
2021/09/18 00:22:58;;;;;;;11.20;6.25;;;13.80;99.90;;;;;;5034692;28;20543;-85
2021/09/18 00:25:24;;;;;;;14.10;5.65;;;13.90;99.90;;;;;;5033956;28;20037;-86
2021/09/18 00:27:49;;;;;;;5.22;4.68;;;13.80;99.90;;;;;;5033860;28;20112;-84
2021/09/18 00:30:15;;;;;;;5.93;5.22;;;13.80;99.90;;;;;;5032709;28;20032;-83
2021/09/18 00:32:41;;;;;;;10.23;5.82;;;13.80;99.90;;;;;;5034348;28;20021;-83
2021/09/18 00:35:07;;;;;;;9.02;5.88;;;13.80;99.90;;;;;;5033828;28;20033;-83
2021/09/18 00:37:33;;;;;;;6.22;5.45;;;13.70;99.90;;;;;;5032826;28;20026;-82
2021/09/18 00:39:58;;;;;;;9.85;5.82;;;13.70;99.90;;;;;;5034190;28;20500;-82
2021/09/18 00:42:24;;;;;;;11.45;7.20;;;13.70;99.90;;;;;;5034108;28;20035;-83
2021/09/18 00:44:52;;;;;;;9.48;5.97;;;13.90;99.90;;;;;;5033587;28;20068;-83
2021/09/18 00:47:19;;;;;;;5.90;5.35;;;13.80;99.90;;;;;;5033985;28;20025;-83
2021/09/18 00:49:44;;;;;;;7.57;5.72;;;13.80;99.90;;;;;;5033904;28;20030;-84
2021/09/18 00:52:12;;;;;;;6.45;5.60;;;13.90;99.90;;;;;;5033934;28;20124;-84
2021/09/18 00:54:38;;;;;;;11.60;6.80;;;13.90;99.90;;;;;;5033697;28;20034;-84
2021/09/18 00:57:03;;;;;;;6.22;5.25;;;13.90;99.90;;;;;;5033537;28;20026;-84
2021/09/18 00:59:30;;;;;;;9.57;6.03;;;13.90;99.90;;;;;;5033791;28;20068;-84
2021/09/18 01:01:55;;;;;;;7.10;5.65;;;13.90;99.90;;;;;;5032530;28;20022;-84
2021/09/18 01:04:22;;;;;;;6.47;5.75;;;13.90;99.90;;;;;;5033468;28;20409;-84
2021/09/18 01:06:48;;;;;;;7.63;6.25;;;14.00;99.90;;;;;;5032886;28;20132;-84
2021/09/18 01:09:13;;;;;;;5.22;4.72;;;13.90;99.90;;;;;;5033557;28;20235;-84
2021/09/18 01:11:39;;;;;;;10.35;5.85;;;14.00;99.90;;;;;;5033571;28;20054;-84
2021/09/18 01:14:04;;;;;;;6.65;6.03;;;13.90;99.90;;;;;;5033228;28;20022;-84
2021/09/18 01:16:30;;;;;;;6.32;5.75;;;13.90;99.90;;;;;;5032414;28;20037;-85
2021/09/18 01:18:56;;;;;;;6.90;6.07;;;13.90;99.90;;;;;;5033130;28;20033;-85
2021/09/18 01:21:21;;;;;;;5.97;5.10;;;13.90;99.90;;;;;;5033384;28;20486;-85
2021/09/18 01:23:47;;;;;;;6.60;5.75;;;13.90;99.90;;;;;;5033225;28;20263;-84
2021/09/18 01:26:12;;;;;;;7.32;6.05;;;13.90;99.90;;;;;;5033098;28;20029;-85
2021/09/18 01:28:40;;;;;;;6.35;5.60;;;13.90;99.90;;;;;;5033350;28;20043;-85
2021/09/18 01:31:06;;;;;;;7.25;6.55;;;13.90;99.90;;;;;;5031444;28;20030;-85
2021/09/18 01:33:32;;;;;;;5.72;5.22;;;13.90;99.90;;;;;;5033063;28;20105;-85
2021/09/18 01:35:57;;;;;;;7.10;5.85;;;13.80;99.90;;;;;;5032968;28;20100;-85
2021/09/18 01:38:23;;;;;;;7.00;6.13;;;13.90;99.90;;;;;;5031635;28;20491;-85
2021/09/18 01:40:49;;;;;;;7.22;6.40;;;14.00;99.90;;;;;;5033115;28;20033;-85
2021/09/18 01:43:15;;;;;;;6.70;5.22;;;13.90;99.90;;;;;;5033004;28;20029;-86
2021/09/18 01:45:41;;;;;;;6.93;6.13;;;13.90;99.90;;;;;;5031432;28;20053;-85
2021/09/18 01:48:15;;;;;;;6.38;4.93;;;13.90;99.90;;;;;;5032687;28;20029;-85
2021/09/18 01:50:47;;;;;;;6.95;6.25;;;13.90;99.90;;;;;;5032857;28;20116;-85
2021/09/18 01:53:16;;;;;;;8.95;7.07;;;13.90;99.90;;;;;;5032904;28;20026;-85
2021/09/18 01:55:42;;;;;;;7.43;6.72;;;14.00;99.90;;;;;;5032509;28;20032;-85
2021/09/18 01:58:09;;;;;;;6.65;6.05;;;14.00;99.90;;;;;;5014557;28;20030;-85
2021/09/18 02:00:40;;;;;;;6.82;6.22;;;14.00;99.90;;;;;;5032719;28;20030;-85
2021/09/18 02:03:07;;;;;;;7.65;6.85;;;14.00;99.90;;;;;;5032344;28;20033;-85
2021/09/18 02:05:32;;;;;;;7.28;6.53;;;14.00;99.90;;;;;;5032187;28;20060;-85
2021/09/18 02:07:58;;;;;;;7.82;7.05;;;14.00;99.90;;;;;;5032243;28;20053;-86
2021/09/18 02:10:26;;;;;;;6.68;5.97;;;14.00;99.90;;;;;;5032488;28;20033;-85
2021/09/18 02:12:53;;;;;;;7.35;6.10;;;14.00;99.90;;;;;;5031255;28;20394;-85
2021/09/18 02:15:20;;;;;;;9.65;6.28;;;14.00;99.90;;;;;;5032086;28;20032;-85
2021/09/18 02:17:46;;;;;;;6.45;5.80;;;14.10;99.90;;;;;;5030780;28;20367;-85
2021/09/18 02:20:14;;;;;;;7.38;6.40;;;14.20;99.90;;;;;;5031115;28;20032;-84
2021/09/18 02:22:41;;;;;;;11.30;6.90;;;14.10;99.90;;;;;;5032271;28;20037;-85
2021/09/18 02:25:08;;;;;;;6.63;5.93;;;14.10;99.90;;;;;;5032108;28;20497;-85
2021/09/18 02:27:34;;;;;;;7.55;6.85;;;14.10;99.90;;;;;;5032097;28;20029;-85
2021/09/18 02:30:00;;;;;;;6.53;5.93;;;14.10;99.90;;;;;;5031781;28;20677;-85
2021/09/18 02:32:25;;;;;;;8.93;6.38;;;14.00;99.90;;;;;;5032124;28;20025;-85
2021/09/18 02:34:51;;;;;;;6.03;5.47;;;14.00;99.90;;;;;;5031877;28;20132;-85
2021/09/18 02:37:17;;;;;;;6.55;5.93;;;14.00;99.90;;;;;;5032002;28;20382;-85
2021/09/18 02:39:42;;;;;;;5.15;4.65;;;14.10;99.90;;;;;;5031718;28;20033;-85
2021/09/18 02:42:08;;;;;;;6.60;5.80;;;14.10;99.90;;;;;;5030711;28;20029;-85
2021/09/18 02:44:34;;;;;;;6.07;5.47;;;14.10;99.90;;;;;;5030470;28;20097;-85
2021/09/18 02:47:00;;;;;;;8.05;6.40;;;14.10;99.90;;;;;;5032015;28;20113;-85
2021/09/18 02:49:26;;;;;;;6.03;5.40;;;14.10;99.90;;;;;;5013975;28;20061;-85
2021/09/18 02:51:51;;;;;;;7.63;6.18;;;14.10;99.90;;;;;;5031914;28;20025;-85
2021/09/18 02:54:17;;;;;;;6.22;5.53;;;14.10;99.90;;;;;;5031621;28;20025;-85
2021/09/18 02:56:42;;;;;;;6.53;5.93;;;14.20;99.90;;;;;;5031713;28;20382;-85
2021/09/18 02:59:09;;;;;;;6.55;5.63;;;14.10;99.90;;;;;;5031556;28;20123;-85
2021/09/18 03:01:35;;;;;;;5.57;5.07;;;14.10;99.90;;;;;;5031834;28;20030;-85
2021/09/18 03:04:00;;;;;;;6.85;5.63;;;14.10;99.90;;;;;;5031724;28;20026;-85
2021/09/18 03:06:26;;;;;;;7.47;6.68;;;14.10;99.90;;;;;;5031749;28;20033;-85
2021/09/18 03:08:51;;;;;;;6.90;6.10;;;14.10;99.90;;;;;;5031696;28;20033;-85
2021/09/18 03:11:17;;;;;;;6.60;5.68;;;14.10;99.90;;;;;;5031333;28;20029;-85
2021/09/18 03:13:43;;;;;;;7.40;5.63;;;14.20;99.90;;;;;;5031453;28;20029;-85
2021/09/18 03:16:08;;;;;;;8.52;7.53;;;14.20;99.90;;;;;;5030370;28;20017;-85
2021/09/18 03:18:34;;;;;;;7.95;6.85;;;14.20;99.90;;;;;;5031703;28;20045;-85
2021/09/18 03:21:00;;;;;;;8.38;7.43;;;14.20;99.90;;;;;;5031300;28;20030;-85
2021/09/18 03:23:26;;;;;;;6.57;5.35;;;14.30;99.90;;;;;;5031530;28;20018;-85
2021/09/18 03:25:51;;;;;;;9.43;5.97;;;14.30;99.90;;;;;;5013588;28;20482;-85
2021/09/18 03:28:17;;;;;;;7.82;6.20;;;14.30;99.90;;;;;;5031494;28;20030;-84
2021/09/18 03:30:43;;;;;;;6.90;6.15;;;14.30;99.90;;;;;;5030657;28;20033;-84
2021/09/18 03:33:08;;;;;;;7.47;5.55;;;14.30;99.90;;;;;;5031553;28;20389;-84
2021/09/18 03:35:34;;;;;;;4.82;4.43;;;14.30;99.90;;;;;;5031276;28;20579;-85
2021/09/18 03:37:59;;;;;;;5.53;5.00;;;14.30;99.90;;;;;;5031388;28;20072;-85
2021/09/18 03:40:25;;;;;;;7.20;4.63;;;14.30;99.90;;;;;;5033868;28;20064;-84
2021/09/18 03:42:51;;;;;;;4.68;4.28;;;14.40;99.90;;;;;;5035264;28;20032;-85
2021/09/18 03:45:16;;;;;;;4.82;4.20;;;14.40;99.90;;;;;;5033800;28;20037;-84
2021/09/18 03:47:42;;;;;;;7.18;4.30;;;14.40;99.90;;;;;;5035116;28;20025;-84
2021/09/18 03:50:09;;;;;;;4.20;3.80;;;14.40;99.90;;;;;;5033886;28;20034;-85
2021/09/18 03:52:35;;;;;;;6.30;3.92;;;14.30;99.90;;;;;;5034874;28;20030;-85
2021/09/18 03:55:01;;;;;;;4.18;3.70;;;14.40;99.90;;;;;;5034808;28;20543;-85
2021/09/18 03:57:27;;;;;;;4.10;3.65;;;14.30;99.90;;;;;;5033619;28;20108;-85
2021/09/18 03:59:52;;;;;;;4.82;4.00;;;14.40;99.90;;;;;;5035008;28;20481;-85
2021/09/18 04:02:18;;;;;;;3.85;3.50;;;14.30;99.90;;;;;;5034670;28;20060;-85
2021/09/18 04:04:43;;;;;;;4.43;3.67;;;14.30;99.90;;;;;;5033036;28;20044;-85
2021/09/18 04:07:09;;;;;;;3.90;2.90;;;14.30;99.90;;;;;;5034774;28;20025;-85
2021/09/18 04:09:34;;;;;;;5.05;3.22;;;14.30;99.90;;;;;;5034696;28;20103;-85
2021/09/18 04:12:00;;;;;;;5.95;3.20;;;14.20;99.90;;;;;;5034336;28;20548;-85
2021/09/18 04:14:26;;;;;;;4.10;3.70;;;14.20;99.90;;;;;;5034484;28;20021;-85
2021/09/18 04:16:51;;;;;;;4.20;3.38;;;14.10;99.90;;;;;;5034683;28;20033;-85
2021/09/18 04:19:17;;;;;;;5.70;3.50;;;14.20;99.90;;;;;;5016856;28;20033;-85
2021/09/18 04:21:42;;;;;;;3.42;3.13;;;14.20;99.90;;;;;;5034316;28;20021;-84
2021/09/18 04:24:08;;;;;;;3.63;3.05;;;14.20;99.90;;;;;;5034281;28;20510;-85
2021/09/18 04:26:34;;;;;;;4.40;3.30;;;14.20;99.90;;;;;;5033077;28;20053;-85
2021/09/18 04:29:00;;;;;;;4.85;3.63;;;14.20;99.90;;;;;;5034442;28;20017;-85
2021/09/18 04:31:26;;;;;;;3.92;3.30;;;14.20;99.90;;;;;;5034291;28;20048;-85
2021/09/18 04:33:52;;;;;;;5.60;3.70;;;14.30;99.90;;;;;;5033837;28;20486;-85
2021/09/18 04:36:18;;;;;;;5.07;3.78;;;14.30;99.90;;;;;;5034205;28;20147;-84
2021/09/18 04:38:44;;;;;;;4.70;4.18;;;14.30;99.90;;;;;;5034207;28;20026;-85
2021/09/18 04:41:10;;;;;;;5.28;4.47;;;14.30;99.90;;;;;;5034139;28;20033;-85
2021/09/18 04:43:36;;;;;;;5.53;4.40;;;14.30;99.90;;;;;;5033877;28;20397;-85
2021/09/18 04:46:02;;;;;;;5.57;4.25;;;14.40;99.90;;;;;;5033960;28;20029;-84
2021/09/18 04:48:28;;;;;;;3.95;3.55;;;14.30;99.90;;;;;;5034081;28;20035;-85
2021/09/18 04:50:54;;;;;;;7.53;4.15;;;14.30;99.90;;;;;;5032822;28;20038;-85
2021/09/18 04:53:19;;;;;;;4.35;3.97;;;14.30;99.90;;;;;;5033404;28;20030;-85
2021/09/18 04:55:45;;;;;;;4.10;3.70;;;14.40;99.90;;;;;;5032295;28;20032;-85
2021/09/18 04:58:11;;;;;;;4.35;3.50;;;14.30;99.90;;;;;;5033950;28;20017;-85
2021/09/18 05:00:37;;;;;;;10.05;4.15;;;14.30;99.90;;;;;;5033873;28;20449;-85
2021/09/18 05:03:02;;;;;;;4.88;4.38;;;14.30;99.90;;;;;;5033587;28;20070;-85
2021/09/18 05:05:28;;;;;;;5.78;3.95;;;14.20;99.90;;;;;;5015642;28;20037;-84
2021/09/18 05:07:54;;;;;;;6.97;4.15;;;14.20;99.90;;;;;;5033590;28;20025;-84
2021/09/18 05:10:19;;;;;;;8.15;4.20;;;14.20;99.90;;;;;;5033555;28;20099;-85
2021/09/18 05:12:45;;;;;;;5.10;4.07;;;14.20;99.90;;;;;;5033636;28;20029;-85
2021/09/18 05:15:10;;;;;;;5.68;4.68;;;14.20;99.90;;;;;;5033109;28;20156;-85
2021/09/18 05:17:36;;;;;;;6.15;4.45;;;14.20;99.90;;;;;;5033410;28;20022;-84
2021/09/18 05:20:02;;;;;;;5.15;3.97;;;14.20;99.90;;;;;;5033506;28;20075;-85
2021/09/18 05:22:28;;;;;;;8.77;5.10;;;14.20;99.90;;;;;;5033360;28;20095;-84
2021/09/18 05:24:53;;;;;;;5.25;4.60;;;14.30;99.90;;;;;;5032843;28;20059;-85
2021/09/18 05:27:19;;;;;;;6.00;4.60;;;14.30;99.90;;;;;;5033316;28;20037;-85
2021/09/18 05:29:45;;;;;;;5.85;4.70;;;14.40;99.90;;;;;;5033265;28;20040;-85
2021/09/18 05:32:11;;;;;;;5.68;4.00;;;14.40;99.90;;;;;;5015577;28;20547;-85
2021/09/18 05:34:37;;;;;;;5.95;4.35;;;14.50;99.90;;;;;;5032757;28;20022;-85
2021/09/18 05:37:03;;;;;;;5.50;4.63;;;14.50;99.90;;;;;;5033074;28;20030;-85
2021/09/18 05:39:29;;;;;;;12.02;5.10;;;14.60;99.90;;;;;;5031838;28;20030;-85
2021/09/18 05:41:54;;;;;;;7.20;4.18;;;14.70;99.90;;;;;;5031824;28;20036;-85
2021/09/18 05:44:20;;;;;;;6.55;4.25;;;14.80;99.90;;;;;;5032552;28;20053;-85
2021/09/18 05:46:46;;;;;;;4.63;4.03;;;14.90;99.90;;;;;;5032938;28;20482;-85
2021/09/18 05:49:12;;;;;;;5.60;4.07;;;14.90;99.90;;;;;;5032842;28;20028;-85
2021/09/18 05:51:38;;;;;;;11.20;4.60;;;14.90;99.90;;;;;;5032910;28;20029;-85
2021/09/18 05:54:03;;;;;;;5.30;4.15;;;14.90;99.90;;;;;;5032604;28;20114;-85
2021/09/18 05:56:29;;;;;;;5.88;4.00;;;15.00;99.90;;;;;;5032135;28;20065;-85
2021/09/18 05:58:55;;;;;;;7.57;5.68;;;15.20;99.90;;;;;;5032761;28;20053;-86
2021/09/18 06:01:21;;;;;;;8.07;6.18;;;15.10;99.90;;;;;;5031075;28;20099;-85
2021/09/18 06:03:46;;;;;;;12.07;5.38;;;15.10;99.90;;;;;;5031835;28;20037;-85
2021/09/18 06:06:12;;;;;;;4.25;3.78;;;15.10;99.90;;;;;;5030781;28;20438;-85
2021/09/18 06:08:38;;;;;;;4.82;4.40;;;15.20;99.90;;;;;;5032243;28;20675;-85
2021/09/18 06:11:03;;;;;;;5.57;4.57;;;15.30;99.90;;;;;;5032295;28;20045;-85
2021/09/18 06:13:29;;;;;;;5.25;4.72;;;15.20;99.90;;;;;;5032371;28;20021;-85
2021/09/18 06:15:54;;;;;;;7.18;4.30;;;15.40;99.90;;;;;;5031749;28;20029;-85
2021/09/18 06:18:20;;;;;;;14.05;3.90;;;15.40;99.90;;;;;;5032138;28;20108;-85
2021/09/18 06:20:46;;;;;;;4.25;3.40;;;15.50;99.90;;;;;;5031037;28;20022;-86
2021/09/18 06:23:11;;;;;;;5.78;3.70;;;15.50;99.90;;;;;;5030892;28;20024;-85
2021/09/18 06:25:37;;;;;;;5.90;4.13;;;15.40;99.90;;;;;;5031559;28;20059;-85
2021/09/18 06:28:03;;;;;;;5.45;3.85;;;15.70;99.90;;;;;;5032139;28;20041;-84
2021/09/18 06:30:29;;;;;;;5.32;3.70;;;15.70;99.90;;;;;;5030443;28;20091;-85
2021/09/18 06:32:54;;;;;;;5.53;3.63;;;15.60;99.90;;;;;;5031994;28;20036;-86
2021/09/18 06:35:20;;;;;;;5.35;3.50;;;15.60;99.90;;;;;;5030638;28;20028;-85
2021/09/18 06:37:48;;;;;;;7.38;3.42;;;15.60;99.90;;;;;;5032045;28;20037;-84
2021/09/18 06:40:16;;;;;;;6.40;2.88;;;15.50;99.90;;;;;;5030113;28;20021;-85
2021/09/18 06:42:42;;;;;;;6.63;3.63;;;15.50;99.90;;;;;;5030737;28;20533;-85
2021/09/18 06:45:09;;;;;;;6.90;3.40;;;15.50;99.90;;;;;;5030365;28;20065;-85
2021/09/18 06:47:35;;;;;;;6.28;3.55;;;15.50;99.90;;;;;;5031778;28;20021;-85
2021/09/18 06:50:01;;;;;;;8.57;3.20;;;15.50;99.90;;;;;;5031593;28;20026;-85
2021/09/18 06:52:26;;;;;;;5.03;2.47;;;15.60;99.90;;;;;;5031692;28;20028;-85
2021/09/18 06:54:52;;;;;;;3.15;2.58;;;15.60;99.90;;;;;;5013902;28;20072;-85
2021/09/18 06:57:17;;;;;;;6.70;2.60;;;15.60;99.90;;;;;;5031636;28;20057;-85
2021/09/18 06:59:43;;;;;;;5.43;2.80;;;15.60;99.90;;;;;;5031711;28;20061;-85
2021/09/18 07:02:08;;;;;;;6.95;2.90;;;15.60;99.90;;;;;;5031513;28;20033;-85
2021/09/18 07:04:35;;;;;;;5.97;3.00;;;15.50;99.90;;;;;;5030141;28;20030;-85
2021/09/18 07:07:04;;;;;;;4.03;3.03;;;15.40;99.90;;;;;;5030155;28;20209;-84
2021/09/18 07:09:30;;;;;;;3.97;2.63;;;15.40;99.90;;;;;;5031508;28;20057;-84
2021/09/18 07:11:56;;;;;;;8.35;3.30;;;15.50;99.90;;;;;;5031355;28;20049;-85
2021/09/18 07:14:21;;;;;;;9.63;3.47;;;15.50;99.90;;;;;;5032536;28;20394;-85
2021/09/18 07:16:47;;;;;;;2.50;2.20;;;15.50;99.90;;;;;;5034401;28;20567;-84
2021/09/18 07:19:13;;;;;;;8.68;3.13;;;15.50;99.90;;;;;;5034303;28;20112;-85
2021/09/18 07:21:38;;;;;;;5.07;3.10;;;15.60;99.90;;;;;;5034994;28;20030;-85
2021/09/18 07:24:06;;;;;;;6.10;3.28;;;15.60;99.90;;;;;;5035276;28;20022;-85
2021/09/18 07:26:32;;;;;;;5.32;3.25;;;15.90;99.90;;;;;;5035493;28;20097;-85
2021/09/18 07:28:58;;;;;;;16.40;4.55;;;16.00;99.90;;;;;;5017847;28;20025;-85
2021/09/18 07:31:23;;;;;;;4.60;2.67;;;16.00;99.90;;;;;;5017300;28;20052;-85
2021/09/18 07:33:49;;;;;;;6.88;3.03;;;15.90;99.90;;;;;;5035220;28;20026;-85
2021/09/18 07:36:15;;;;;;;4.18;2.53;;;15.90;99.90;;;;;;5035091;28;20033;-85
2021/09/18 07:38:41;;;;;;;4.65;2.75;;;15.80;99.90;;;;;;5035314;28;20433;-85
2021/09/18 07:41:06;;;;;;;5.50;2.90;;;15.70;99.90;;;;;;5035126;28;20075;-85
2021/09/18 07:43:32;;;;;;;4.40;2.75;;;15.70;99.90;;;;;;5035138;28;20028;-86
2021/09/18 07:45:58;;;;;;;5.90;2.92;;;15.90;99.90;;;;;;5034949;28;20482;-85
2021/09/18 07:48:23;;;;;;;7.80;3.10;;;16.20;99.90;;;;;;5033883;28;20026;-85
2021/09/18 07:50:49;;;;;;;6.05;3.30;;;16.50;99.90;;;;;;5034929;28;20032;-85
2021/09/18 07:53:15;;;;;;;3.80;2.30;;;16.80;99.90;;;;;;5034705;28;20021;-84
2021/09/18 07:55:40;;;;;;;7.50;2.83;;;16.90;99.90;;;;;;5034734;28;20021;-85
2021/09/18 07:58:06;;;;;;;3.72;2.50;;;17.00;99.90;;;;;;5035013;28;20025;-87
2021/09/18 08:00:31;;;;;;;3.38;2.15;;;16.90;99.90;;;;;;5034870;28;20104;-85
2021/09/18 08:02:57;;;;;;;5.97;2.58;;;16.80;99.90;;;;;;5034686;28;20573;-86
2021/09/18 08:05:24;;;;;;;9.07;2.40;;;16.80;99.90;;;;;;5034265;28;20409;-85
2021/09/18 08:07:49;;;;;;;6.70;2.38;;;16.80;99.90;;;;;;5034668;28;20033;-85
2021/09/18 08:10:15;;;;;;;4.75;1.85;;;16.90;99.90;;;;;;5034768;28;20363;-85
2021/09/18 08:12:45;;;;;;;3.70;2.10;;;17.00;99.90;;;;;;5033090;28;20025;-85
2021/09/18 08:15:12;;;;;;;7.07;2.70;;;17.20;99.90;;;;;;5034220;28;20390;-87
2021/09/18 08:17:39;;;;;;;3.58;2.10;;;17.30;99.90;;;;;;5034493;28;20434;-85
2021/09/18 08:20:06;;;;;;;6.90;2.63;;;17.20;99.90;;;;;;5033579;28;20479;-87
2021/09/18 08:22:32;;;;;;;4.00;2.33;;;17.20;99.90;;;;;;5033607;28;20448;-87
2021/09/18 08:24:57;;;;;;;2.42;1.90;;;17.10;99.90;;;;;;5030611;28;20021;-88
2021/09/18 08:27:23;;;;;;;7.00;2.10;;;17.20;99.90;;;;;;5033490;28;20035;-87
2021/09/18 08:29:49;;;;;;;4.38;2.30;;;17.30;99.90;;;;;;5033297;28;20390;-87
2021/09/18 08:32:15;;;;;;;4.13;2.35;;;17.20;99.90;;;;;;5033896;28;20036;-88
2021/09/18 08:34:40;;;;;;;7.57;2.38;;;17.30;99.90;;;;;;5033072;28;20029;-89
2021/09/18 08:37:06;;;;;;;3.00;1.63;;;17.40;99.90;;;;;;5033232;28;20473;-87
2021/09/18 08:39:35;;;;;;;3.35;1.63;;;17.50;99.90;;;;;;5033091;28;20033;-85
2021/09/18 08:42:02;;;;;;;6.55;2.17;;;17.60;99.90;;;;;;5033178;28;20071;-87
2021/09/18 08:44:28;;;;;;;6.65;2.45;;;17.60;99.90;;;;;;5024357;28;20457;-87
2021/09/18 08:46:55;;;;;;;3.35;1.98;;;17.60;99.90;;;;;;5044176;28;20052;-85
2021/09/18 08:49:21;;;;;;;4.05;1.95;;;17.70;99.90;;;;;;5032941;28;20029;-84
2021/09/18 08:51:46;;;;;;;3.40;1.83;;;17.80;99.90;;;;;;5049726;28;20029;-83
2021/09/18 08:54:32;;;;;;;2.28;1.80;;;17.90;99.90;;;;;;5047921;28;20385;-82
2021/09/18 08:56:58;;;;;;;3.42;2.08;;;17.90;99.90;;;;;;5028527;28;20026;-82
2021/09/18 08:59:23;;;;;;;10.50;1.95;;;17.90;99.90;;;;;;5029817;28;20096;-84
2021/09/18 09:02:18;;;;;;;2.97;1.65;;;17.80;99.90;;;;;;5030311;28;20474;-83
2021/09/18 09:04:46;;;;;;;2.80;2.00;;;17.80;99.90;;;;;;5028862;28;20037;-81
2021/09/18 09:07:13;;;;;;;10.95;2.28;;;17.70;99.90;;;;;;5027360;28;20026;-83
2021/09/18 09:09:59;;;;;;;4.93;1.92;;;17.70;99.90;;;;;;5038432;28;20025;-83
2021/09/18 09:12:35;;;;;;;2.63;1.92;;;17.60;99.90;;;;;;5030214;28;20057;-84
2021/09/18 09:15:20;;;;;;;10.82;2.70;;;17.60;99.90;;;;;;5029131;28;20033;-82
2021/09/18 09:17:51;;;;;;;2.83;2.03;;;17.70;99.90;;;;;;5023871;28;20833;-82
2021/09/18 09:20:25;;;;;;;4.95;1.73;;;17.70;99.90;;;;;;5010525;28;20040;-85
2021/09/18 09:22:51;;;;;;;4.53;1.98;;;17.70;99.90;;;;;;5030184;28;20037;-85
2021/09/18 09:25:31;;;;;;;2.25;1.63;;;17.70;99.90;;;;;;5028744;28;20038;-85
2021/09/18 09:27:59;;;;;;;2.60;1.50;;;17.70;99.90;;;;;;5029006;28;20029;-85
2021/09/18 09:30:34;;;;;;;4.65;1.98;;;17.60;99.90;;;;;;5039685;28;20449;-85
2021/09/18 09:33:10;;;;;;;6.72;2.35;;;17.60;99.90;;;;;;5028474;28;20100;-85
2021/09/18 09:35:37;;;;;;;3.45;2.03;;;17.30;99.90;;;;;;5028618;28;20022;-84
2021/09/18 09:38:05;;;;;;;2.50;1.85;;;17.30;99.90;;;;;;5028404;28;20018;-84
2021/09/18 09:40:36;;;;;;;5.53;2.42;;;16.90;99.90;;;;;;5028827;28;20022;-83
2021/09/18 09:43:04;;;;;;;3.42;2.15;;;16.70;99.90;;;;;;5038373;28;20037;-83
2021/09/18 09:45:30;;;;;;;4.70;1.70;;;16.40;99.90;;;;;;5028444;28;20036;-83
2021/09/18 09:48:31;;;;;;;4.07;2.15;;;16.50;99.90;;;;;;5028528;28;20033;-83
2021/09/18 09:51:02;;;;;;;3.38;1.65;;;16.40;99.90;;;;;;4980059;28;20590;-84
2021/09/18 09:53:31;;;;;;;7.75;1.73;;;16.40;99.90;;;;;;5021257;28;20046;-82
2021/09/18 09:55:57;;;;;;;2.03;1.13;;;16.40;99.90;;;;;;5027928;28;20031;-82
2021/09/18 09:58:24;;;;;;;3.80;1.33;;;16.40;99.90;;;;;;5024346;28;20564;-82
2021/09/18 10:00:52;;;;;;;2.83;1.38;;;16.50;99.90;;;;;;5019752;28;20124;-82
2021/09/18 10:03:22;;;;;;;5.63;1.33;;;16.50;99.90;;;;;;5028122;28;20040;-82
2021/09/18 10:05:48;;;;;;;4.25;1.83;;;16.60;99.90;;;;;;5028003;28;20048;-82
2021/09/18 10:08:17;;;;;;;3.47;1.52;;;16.70;99.90;;;;;;5028289;28;20125;-82
2021/09/18 10:10:44;;;;;;;5.28;1.55;;;16.80;99.90;;;;;;5028026;28;20038;-82
2021/09/18 10:13:11;;;;;;;5.03;1.70;;;16.90;99.90;;;;;;5027962;28;20030;-81
2021/09/18 10:15:36;;;;;;;4.95;1.65;;;17.00;99.90;;;;;;5029824;28;20033;-83
2021/09/18 10:18:03;;;;;;;6.10;1.88;;;17.20;99.90;;;;;;5030738;28;20041;-82
2021/09/18 10:23:15;;;;;;;6.82;2.47;;;17.40;99.90;;;;;;5030911;28;20044;-82
2021/09/18 10:25:45;;;;;;;3.95;1.70;;;17.50;99.90;;;;;;5014017;28;20037;-83
2021/09/18 10:28:11;;;;;;;2.97;1.70;;;17.50;99.90;;;;;;5031728;28;20367;-81
2021/09/18 10:30:41;;;;;;;5.10;2.42;;;17.70;99.90;;;;;;5014594;28;20072;-82
2021/09/18 10:33:31;;;;;;;2.90;1.38;;;18.00;99.90;;;;;;5012630;28;20450;-82
2021/09/18 10:36:06;;;;;;;5.55;1.80;;;18.00;99.90;;;;;;5012170;28;20045;-82
2021/09/18 10:38:34;;;;;;;3.53;2.17;;;18.00;99.90;;;;;;5017783;28;20020;-82
2021/09/18 10:41:11;;;;;;;5.28;1.70;;;17.80;99.90;;;;;;5014557;28;20144;-81
2021/09/18 10:43:54;;;;;;;9.95;2.28;;;17.70;99.90;;;;;;5031907;28;20056;-81
2021/09/18 10:46:40;;;;;;;;;;;17.60;99.90;;;;;;5032300;28;20037;-81
2021/09/18 10:49:26;;;;;;;6.70;2.15;;;17.40;99.90;;;;;;5030890;28;20317;-81
2021/09/18 10:51:52;;;;;;;8.25;1.80;;;17.10;99.90;;;;;;5031967;28;20037;-80
2021/09/18 10:54:18;;;;;;;6.25;2.63;;;17.10;99.90;;;;;;5031533;28;20486;-81
2021/09/18 10:57:03;;;;;;;5.43;2.03;;;17.10;99.90;;;;;;5030480;28;20037;-82
2021/09/18 10:59:45;;;;;;;3.78;2.00;;;17.20;99.90;;;;;;5011198;28;20021;-82
2021/09/18 11:02:29;;;;;;;6.28;2.20;;;17.20;99.90;;;;;;5025422;28;20021;-82
2021/09/18 11:04:58;;;;;;;3.67;1.98;;;17.30;99.90;;;;;;5027335;28;20121;-82
2021/09/18 11:07:43;;;;;;;4.95;2.05;;;17.40;99.90;;;;;;5028692;28;20112;-82
2021/09/18 11:10:10;;;;;;;4.95;1.77;;;17.30;99.90;;;;;;5028432;28;20026;-82
2021/09/18 11:12:36;;;;;;;2.70;1.77;;;17.50;99.90;;;;;;5028491;28;20045;-81
2021/09/18 11:15:04;;;;;;;9.27;2.40;;;17.80;99.90;;;;;;5027954;28;20100;-80
2021/09/18 11:17:33;;;;;;;3.17;1.67;;;17.90;99.90;;;;;;5028153;28;20024;-81
2021/09/18 11:20:15;;;;;;;2.67;1.63;;;18.10;99.90;;;;;;5027944;28;20029;-80
2021/09/18 11:22:42;;;;;;;2.00;1.75;;;18.50;99.90;;;;;;5027814;28;20108;-81
2021/09/18 11:25:36;;;;;;;3.45;2.22;;;18.60;99.90;;;;;;5028125;28;20034;-80
2021/09/18 11:28:07;;;;;;;2.15;1.63;;;18.70;99.90;;;;;;5028374;28;20047;-80
2021/09/18 11:30:53;;;;;;;2.42;1.73;;;18.70;99.90;;;;;;5026821;28;20036;-81
2021/09/18 11:33:20;;;;;;;3.95;2.42;;;18.50;99.90;;;;;;5010346;28;20029;-80
2021/09/18 11:35:57;;;;;;;3.22;2.33;;;18.40;99.90;;;;;;5027771;28;20057;-81
2021/09/18 11:38:27;;;;;;;3.47;2.22;;;18.10;99.90;;;;;;5028074;28;20482;-82
2021/09/18 11:41:11;;;;;;;5.22;2.05;;;18.10;99.90;;;;;;5033834;28;20112;-82
2021/09/18 11:43:40;;;;;;;7.13;2.50;;;17.80;99.90;;;;;;5031209;28;20083;-82
2021/09/18 11:46:07;;;;;;;6.30;2.22;;;17.80;99.90;;;;;;5029922;28;20571;-82
2021/09/18 11:48:33;;;;;;;2.10;1.70;;;17.70;99.90;;;;;;5041848;28;20463;-82
2021/09/18 11:51:02;;;;;;;2.85;1.77;;;17.80;99.90;;;;;;5032531;28;20730;-82
2021/09/18 11:53:28;;;;;;;3.15;2.08;;;18.00;99.90;;;;;;5031323;28;20026;-85
2021/09/18 11:55:56;;;;;;;3.08;1.77;;;18.00;99.90;;;;;;5031041;28;20024;-82
2021/09/18 11:58:23;;;;;;;4.72;1.77;;;18.10;99.90;;;;;;5031235;28;20397;-83
2021/09/18 12:01:11;;;;;;;2.72;2.05;;;18.20;99.90;;;;;;5047985;28;20378;-82
2021/09/18 12:03:41;;;;;;;2.78;1.83;;;18.40;99.90;;;;;;5034916;28;20026;-85
2021/09/18 12:06:10;;;;;;;4.95;2.00;;;18.40;99.90;;;;;;5033475;28;20034;-83
2021/09/18 12:08:37;;;;;;;8.43;1.88;;;18.50;99.90;;;;;;5033620;28;20037;-83
2021/09/18 12:11:09;;;;;;;3.80;1.95;;;18.60;99.90;;;;;;5034492;28;20022;-82
2021/09/18 12:13:55;;;;;;;3.65;1.80;;;18.70;99.90;;;;;;5034694;28;20018;-83
2021/09/18 12:16:23;;;;;;;5.07;2.40;;;18.60;99.90;;;;;;5018509;28;20033;-83
2021/09/18 12:18:51;;;;;;;5.53;2.10;;;18.60;99.90;;;;;;5013588;28;20478;-83
2021/09/18 12:21:25;;;;;;;8.48;2.70;;;18.50;99.90;;;;;;5014842;28;20029;-84
2021/09/18 12:23:57;;;;;;;3.95;2.13;;;18.50;99.90;;;;;;5014411;28;20030;-83
2021/09/18 12:26:25;;;;;;;6.13;2.03;;;18.40;99.90;;;;;;5014667;28;20030;-82
2021/09/18 12:29:05;;;;;;;4.25;1.90;;;18.30;99.90;;;;;;5013288;28;20406;-84
2021/09/18 12:31:31;;;;;;;5.18;2.40;;;18.30;99.90;;;;;;5014660;28;20033;-83
2021/09/18 12:34:24;;;;;;;7.70;2.10;;;18.30;99.90;;;;;;5012998;28;20022;-84
2021/09/18 12:36:50;;;;;;;5.47;2.95;;;18.40;99.90;;;;;;5014601;28;20025;-85
2021/09/18 12:39:23;;;;;;;6.10;2.10;;;18.30;99.90;;;;;;5014837;28;20052;-84
2021/09/18 12:41:49;;;;;;;2.92;1.75;;;18.40;99.90;;;;;;5013270;28;20121;-84
2021/09/18 12:44:24;;;;;;;3.72;1.85;;;18.30;99.90;;;;;;5014447;28;20152;-84
2021/09/18 12:46:51;;;;;;;2.33;1.88;;;18.30;99.90;;;;;;5014215;28;20076;-83
2021/09/18 12:49:17;;;;;;;3.95;1.90;;;18.20;99.90;;;;;;5014318;28;20097;-85
2021/09/18 12:51:45;;;;;;;6.95;3.38;;;18.20;99.90;;;;;;5014226;28;20117;-85